createdAt,value
2019-03-24T00:00:08.717Z,30.68
2019-03-24T00:02:37.835Z,31.05
2019-03-24T00:05:06.957Z,30.68
2019-03-24T00:07:36.038Z,31.10
2019-03-24T00:10:07.203Z,30.12
2019-03-24T00:12:36.261Z,31.62
2019-03-24T00:15:07.203Z,32.33
2019-03-24T00:17:36.261Z,31.17
2019-03-24T00:20:06.729Z,31.52
2019-03-24T00:22:35.793Z,32.38
2019-03-24T00:25:06.677Z,32.42
2019-03-24T00:27:35.731Z,31.10
2019-03-24T00:30:07.068Z,32.08
2019-03-24T00:32:36.133Z,31.05
2019-03-24T00:35:06.696Z,31.27
2019-03-24T00:37:35.758Z,32.33
2019-03-24T00:40:07.243Z,32.03
2019-03-24T00:42:36.309Z,31.85
2019-03-24T00:45:09.092Z,32.33
2019-03-24T00:47:38.137Z,31.95
2019-03-24T00:50:07.608Z,31.77
2019-03-24T00:52:36.663Z,32.23
2019-03-24T00:55:07.147Z,32.50
2019-03-24T00:57:37.608Z,33.90
2019-03-24T01:00:09.980Z,30.72
2019-03-24T01:02:39.035Z,31.15
2019-03-24T01:05:08.917Z,31.35
2019-03-24T01:07:38.038Z,31.45
2019-03-24T01:10:07.913Z,31.62
2019-03-24T01:12:36.964Z,31.52
2019-03-24T01:15:07.010Z,31.87
2019-03-24T01:17:36.934Z,31.48
2019-03-24T01:20:07.712Z,31.45
2019-03-24T01:22:37.036Z,31.48
2019-03-24T01:25:06.340Z,31.12
2019-03-24T01:27:35.401Z,31.85
2019-03-24T01:30:09.134Z,32.03
2019-03-24T01:32:38.234Z,30.80
2019-03-24T01:35:07.568Z,30.50
2019-03-24T01:37:36.614Z,30.37
2019-03-24T01:40:07.108Z,31.17
2019-03-24T01:42:36.206Z,30.20
2019-03-24T01:45:10.421Z,30.05
2019-03-24T01:47:39.459Z,31.27
2019-03-24T01:50:09.153Z,30.43
2019-03-24T01:52:38.209Z,29.40
2019-03-24T01:55:07.808Z,29.85
2019-03-24T01:57:36.869Z,29.20
2019-03-24T02:00:08.053Z,28.80
2019-03-24T02:02:37.108Z,29.95
2019-03-24T02:05:07.116Z,28.83
2019-03-24T02:07:36.173Z,28.87
2019-03-24T02:10:07.654Z,28.38
2019-03-24T02:12:36.773Z,29.72
2019-03-24T02:15:08.081Z,28.00
2019-03-24T02:17:37.139Z,27.42
2019-03-24T02:20:07.049Z,28.75
2019-03-24T02:22:36.105Z,27.35
2019-03-24T02:25:06.499Z,26.55
2019-03-24T02:27:35.539Z,27.45
2019-03-24T02:30:07.338Z,26.48
2019-03-24T02:32:36.369Z,26.12
2019-03-24T02:35:06.955Z,25.43
2019-03-24T02:37:36.477Z,25.00
2019-03-24T02:40:07.645Z,26.00
2019-03-24T02:42:36.732Z,25.95
2019-03-24T02:45:07.140Z,26.20
2019-03-24T02:47:36.285Z,25.75
2019-03-24T02:50:06.613Z,26.40
2019-03-24T02:52:35.654Z,26.15
2019-03-24T02:55:07.049Z,26.55
2019-03-24T02:57:36.086Z,26.07
2019-03-24T03:00:09.084Z,25.60
2019-03-24T03:02:38.385Z,26.23
2019-03-24T03:05:08.264Z,26.60
2019-03-24T03:07:37.320Z,26.48
2019-03-24T03:10:09.824Z,25.82
2019-03-24T03:12:38.926Z,26.12
2019-03-24T03:15:10.054Z,25.82
2019-03-24T03:17:39.208Z,26.25
2019-03-24T03:20:09.202Z,25.68
2019-03-24T03:22:38.291Z,25.15
2019-03-24T03:25:09.622Z,25.10
2019-03-24T03:27:38.662Z,24.92
2019-03-24T03:30:08.654Z,24.55
2019-03-24T03:32:37.885Z,24.95
2019-03-24T03:35:08.668Z,24.75
2019-03-24T03:37:37.843Z,23.75
2019-03-24T03:40:07.770Z,24.07
2019-03-24T03:42:38.470Z,24.45
2019-03-24T03:45:09.591Z,23.50
2019-03-24T03:47:39.394Z,23.98
2019-03-24T03:50:08.508Z,24.15
2019-03-24T03:52:37.580Z,23.55
2019-03-24T03:55:06.875Z,23.92
2019-03-24T03:57:36.017Z,23.45
2019-03-24T04:00:08.491Z,22.82
2019-03-24T04:02:37.565Z,21.55
2019-03-24T04:05:07.131Z,22.37
2019-03-24T04:07:36.189Z,22.05
2019-03-24T04:10:05.883Z,20.85
2019-03-24T04:12:34.991Z,20.45
2019-03-24T04:15:08.283Z,20.32
2019-03-24T04:17:37.439Z,19.70
2019-03-24T04:20:06.806Z,18.67
2019-03-24T04:22:35.994Z,19.42
2019-03-24T04:25:06.691Z,18.67
2019-03-24T04:27:35.752Z,18.65
2019-03-24T04:30:06.925Z,17.75
2019-03-24T04:32:36.053Z,18.17
2019-03-24T04:35:06.909Z,18.57
2019-03-24T04:37:35.981Z,17.57
2019-03-24T04:40:08.886Z,17.67
2019-03-24T04:42:37.939Z,17.32
2019-03-24T04:45:07.748Z,16.23
2019-03-24T04:47:36.802Z,16.35
2019-03-24T04:50:09.180Z,17.27
2019-03-24T04:52:38.315Z,16.60
2019-03-24T04:55:08.821Z,16.05
2019-03-24T04:57:37.886Z,17.87
2019-03-24T05:00:08.364Z,15.50
2019-03-24T05:02:37.435Z,16.02
2019-03-24T05:05:07.551Z,16.50
2019-03-24T05:07:36.940Z,16.02
2019-03-24T05:10:08.901Z,15.13
2019-03-24T05:12:37.948Z,14.75
2019-03-24T05:15:07.238Z,14.23
2019-03-24T05:17:36.306Z,14.87
2019-03-24T05:20:06.687Z,13.98
2019-03-24T05:22:35.764Z,14.47
2019-03-24T05:25:05.762Z,14.20
2019-03-24T05:27:34.807Z,14.85
2019-03-24T05:30:05.713Z,15.23
2019-03-24T05:32:34.767Z,15.13
2019-03-24T05:35:05.846Z,15.55
2019-03-24T05:37:35.008Z,16.12
2019-03-24T05:40:04.996Z,16.37
2019-03-24T05:42:34.069Z,16.67
2019-03-24T05:45:04.021Z,16.30
2019-03-24T05:47:37.148Z,16.55
2019-03-24T05:50:08.173Z,16.93
2019-03-24T05:52:37.223Z,17.52
2019-03-24T05:55:07.242Z,17.35
2019-03-24T05:57:36.314Z,17.70
2019-03-24T06:00:07.533Z,17.73
2019-03-24T06:02:36.667Z,17.15
2019-03-24T06:05:06.767Z,17.02
2019-03-24T06:07:35.821Z,16.32
2019-03-24T06:10:06.797Z,16.45
2019-03-24T06:12:35.880Z,16.60
2019-03-24T06:15:07.884Z,16.15
2019-03-24T06:17:47.188Z,15.78
2019-03-24T06:20:07.954Z,16.32
2019-03-24T06:22:37.024Z,15.58
2019-03-24T06:25:07.450Z,15.60
2019-03-24T06:27:36.681Z,22.50
2019-03-24T06:30:08.994Z,15.93
2019-03-24T06:32:38.123Z,14.50
2019-03-24T06:35:07.758Z,14.95
2019-03-24T06:37:36.807Z,15.75
2019-03-24T06:40:06.639Z,14.93
2019-03-24T06:42:35.748Z,14.80
2019-03-24T06:45:06.456Z,14.90
2019-03-24T06:47:35.576Z,14.20
2019-03-24T06:50:06.600Z,16.10
2019-03-24T06:52:35.833Z,14.63
2019-03-24T06:55:05.536Z,13.93
2019-03-24T06:57:34.593Z,14.60
2019-03-24T07:00:04.717Z,13.70
2019-03-24T07:02:33.775Z,14.10
2019-03-24T07:05:02.842Z,13.28
2019-03-24T07:07:31.882Z,13.45
2019-03-24T07:10:00.949Z,12.40
2019-03-24T07:12:29.991Z,11.75
2019-03-24T07:14:59.061Z,12.58
2019-03-24T07:17:28.106Z,12.73
2019-03-24T07:19:57.163Z,13.53
2019-03-24T07:22:26.286Z,13.28
2019-03-24T07:24:55.365Z,12.13
2019-03-24T07:27:24.433Z,13.20
2019-03-24T07:29:53.483Z,13.30
2019-03-24T07:32:22.551Z,14.38
2019-03-24T07:34:51.612Z,12.90
2019-03-24T07:37:20.677Z,13.45
2019-03-24T07:39:49.735Z,13.03
2019-03-24T07:42:18.813Z,13.78
2019-03-24T07:44:47.864Z,14.65
2019-03-24T07:47:17.020Z,13.68
2019-03-24T07:49:46.073Z,13.18
2019-03-24T07:52:15.125Z,14.43
2019-03-24T07:54:44.187Z,15.20
2019-03-24T07:57:13.259Z,15.48
2019-03-24T07:59:42.293Z,14.40
2019-03-24T08:02:11.365Z,14.00
2019-03-24T08:04:40.412Z,15.38
2019-03-24T08:07:09.456Z,14.78
2019-03-24T08:09:38.543Z,14.28
2019-03-24T08:12:07.590Z,14.53
2019-03-24T08:14:36.826Z,14.47
2019-03-24T08:17:05.883Z,15.10
2019-03-24T08:19:34.990Z,16.93
2019-03-24T08:22:04.086Z,15.30
2019-03-24T08:24:33.149Z,15.63
2019-03-24T08:27:02.278Z,16.62
2019-03-24T08:29:31.327Z,16.57
2019-03-24T08:32:00.388Z,16.70
2019-03-24T08:34:29.448Z,16.93
2019-03-24T08:36:58.513Z,16.57
2019-03-24T08:39:27.553Z,15.40
2019-03-24T08:41:56.629Z,16.73
2019-03-24T08:44:25.733Z,16.65
2019-03-24T08:46:54.802Z,18.40
2019-03-24T08:49:23.880Z,17.80
2019-03-24T08:51:52.939Z,18.62
2019-03-24T08:54:21.992Z,18.23
2019-03-24T08:56:51.051Z,19.35
2019-03-24T08:59:20.099Z,18.27
2019-03-24T09:01:49.150Z,17.90
2019-03-24T09:04:18.242Z,18.48
2019-03-24T09:06:47.307Z,17.35
2019-03-24T09:09:16.374Z,17.75
2019-03-24T09:11:45.439Z,18.87
2019-03-24T09:14:14.500Z,19.10
2019-03-24T09:16:43.571Z,18.23
2019-03-24T09:19:12.653Z,18.65
2019-03-24T09:21:41.702Z,18.05
2019-03-24T09:24:10.765Z,17.87
2019-03-24T09:26:39.823Z,17.40
2019-03-24T09:29:08.894Z,23.45
2019-03-24T09:31:37.956Z,17.00
2019-03-24T09:34:07.030Z,18.10
2019-03-24T09:36:36.088Z,17.48
2019-03-24T09:39:06.114Z,17.73
2019-03-24T09:41:35.174Z,18.35
2019-03-24T09:44:04.297Z,17.48
2019-03-24T09:46:33.352Z,16.77
2019-03-24T09:49:03.535Z,16.73
2019-03-24T09:51:32.742Z,17.23
2019-03-24T09:54:01.809Z,16.67
2019-03-24T09:56:30.906Z,17.12
2019-03-24T09:58:59.967Z,17.23
2019-03-24T10:01:29.048Z,17.07
2019-03-24T10:03:58.104Z,17.10
2019-03-24T10:06:27.191Z,16.42
2019-03-24T10:08:56.251Z,16.93
2019-03-24T10:11:25.312Z,16.62
2019-03-24T10:13:54.358Z,17.05
2019-03-24T10:16:23.424Z,17.25
2019-03-24T10:18:52.477Z,16.97
2019-03-24T10:21:21.568Z,16.77
2019-03-24T10:23:50.629Z,17.15
2019-03-24T10:26:19.722Z,18.92
2019-03-24T10:28:48.774Z,17.42
2019-03-24T10:31:17.855Z,17.32
2019-03-24T10:33:46.911Z,16.48
2019-03-24T10:36:15.986Z,16.73
2019-03-24T10:38:45.046Z,16.77
2019-03-24T10:41:14.180Z,17.45
2019-03-24T10:43:43.230Z,16.82
2019-03-24T10:46:12.290Z,17.17
2019-03-24T10:48:41.354Z,17.17
2019-03-24T10:51:10.411Z,18.32
2019-03-24T10:53:39.488Z,18.35
2019-03-24T10:56:08.643Z,17.48
2019-03-24T10:58:37.706Z,18.00
2019-03-24T11:01:06.827Z,17.27
2019-03-24T11:03:35.900Z,17.77
2019-03-24T11:06:04.968Z,16.97
2019-03-24T11:08:34.061Z,18.20
2019-03-24T11:11:03.107Z,19.82
2019-03-24T11:13:32.159Z,16.60
2019-03-24T11:16:01.240Z,17.92
2019-03-24T11:18:30.293Z,17.17
2019-03-24T11:20:59.393Z,17.50
2019-03-24T11:23:28.467Z,16.75
2019-03-24T11:25:57.611Z,16.67
2019-03-24T11:28:26.687Z,18.23
2019-03-24T11:30:55.775Z,17.87
2019-03-24T11:33:24.917Z,18.10
2019-03-24T11:35:54.031Z,18.62
2019-03-24T11:38:23.093Z,18.17
2019-03-24T11:40:52.157Z,16.73
2019-03-24T11:43:21.254Z,17.35
2019-03-24T11:45:50.312Z,21.35
2019-03-24T11:48:19.367Z,18.37
2019-03-24T11:50:48.454Z,18.87
2019-03-24T11:53:17.502Z,18.00
2019-03-24T11:55:46.586Z,16.67
2019-03-24T11:58:15.710Z,16.23
2019-03-24T12:00:44.794Z,15.83
2019-03-24T12:03:13.848Z,16.12
2019-03-24T12:05:43.014Z,15.60
2019-03-24T12:08:12.060Z,18.25
2019-03-24T12:10:41.124Z,17.27
2019-03-24T12:13:10.218Z,16.32
2019-03-24T12:15:39.344Z,16.70
2019-03-24T12:18:08.444Z,20.08
2019-03-24T12:20:37.579Z,16.67
2019-03-24T12:23:06.640Z,19.57
2019-03-24T12:25:35.705Z,16.77
2019-03-24T12:28:04.850Z,16.73
2019-03-24T12:30:33.904Z,16.30
2019-03-24T12:33:03.166Z,17.23
2019-03-24T12:35:32.205Z,17.20
2019-03-24T12:38:01.270Z,22.95
2019-03-24T12:40:30.339Z,18.82
2019-03-24T12:42:59.414Z,17.15
2019-03-24T12:45:28.466Z,16.15
2019-03-24T12:47:57.557Z,16.73
2019-03-24T12:50:31.368Z,16.87
2019-03-24T12:52:57.413Z,16.07
2019-03-24T12:55:26.498Z,15.53
2019-03-24T12:57:55.556Z,16.77
2019-03-24T13:00:35.269Z,15.15
2019-03-24T13:03:04.974Z,16.05
2019-03-24T13:05:34.167Z,16.25
2019-03-24T13:08:14.587Z,16.75
2019-03-24T13:10:44.554Z,15.88
2019-03-24T13:13:13.862Z,15.28
2019-03-24T13:15:42.924Z,14.47
2019-03-24T13:18:12.001Z,15.70
2019-03-24T13:20:41.147Z,15.83
2019-03-24T13:23:10.305Z,15.30
2019-03-24T13:25:39.353Z,15.03
2019-03-24T13:28:08.415Z,15.35
2019-03-24T13:30:37.481Z,15.85
2019-03-24T13:33:06.570Z,15.20
2019-03-24T13:35:35.634Z,14.03
2019-03-24T13:38:04.706Z,14.58
2019-03-24T13:40:33.763Z,15.78
2019-03-24T13:43:02.829Z,13.98
2019-03-24T13:45:31.892Z,13.62
2019-03-24T13:48:01.288Z,13.90
2019-03-24T13:50:31.658Z,13.78
2019-03-24T13:53:01.219Z,14.03
2019-03-24T13:55:30.381Z,13.72
2019-03-24T13:57:59.520Z,12.35
2019-03-24T14:00:28.651Z,11.85
2019-03-24T14:02:57.979Z,12.55
2019-03-24T14:05:27.042Z,12.07
2019-03-24T14:07:56.107Z,12.03
2019-03-24T14:10:25.157Z,12.70
2019-03-24T14:12:54.234Z,12.70
2019-03-24T14:15:23.284Z,11.70
2019-03-24T14:17:52.356Z,12.25
2019-03-24T14:20:21.397Z,12.35
2019-03-24T14:22:50.474Z,11.65
2019-03-24T14:25:19.608Z,12.03
2019-03-24T14:27:48.656Z,11.55
2019-03-24T14:30:20.815Z,12.15
2019-03-24T14:32:49.879Z,11.93
2019-03-24T14:35:18.958Z,13.35
2019-03-24T14:37:48.002Z,12.03
2019-03-24T14:40:17.377Z,10.90
2019-03-24T14:42:46.424Z,10.50
2019-03-24T14:45:15.620Z,11.05
2019-03-24T14:47:44.664Z,11.22
2019-03-24T14:50:14.071Z,11.18
2019-03-24T14:52:43.137Z,11.00
2019-03-24T14:55:12.365Z,10.80
2019-03-24T14:57:41.415Z,11.88
2019-03-24T15:00:11.188Z,12.63
2019-03-24T15:02:41.020Z,11.30
2019-03-24T15:05:10.652Z,10.43
2019-03-24T15:07:39.700Z,11.65
2019-03-24T15:10:09.215Z,10.10
2019-03-24T15:12:38.283Z,11.80
2019-03-24T15:15:07.692Z,10.18
2019-03-24T15:17:36.712Z,9.65
2019-03-24T15:20:07.123Z,9.38
2019-03-24T15:22:36.196Z,8.60
2019-03-24T15:25:06.509Z,8.23
2019-03-24T15:27:35.556Z,8.63
2019-03-24T15:30:08.648Z,9.25
2019-03-24T15:32:37.697Z,9.40
2019-03-24T15:35:07.800Z,9.63
2019-03-24T15:37:36.852Z,10.00
2019-03-24T15:40:07.047Z,10.23
2019-03-24T15:42:36.203Z,9.95
2019-03-24T15:45:07.910Z,9.90
2019-03-24T15:47:37.026Z,10.28
2019-03-24T15:50:07.998Z,9.65
2019-03-24T15:52:37.330Z,10.32
2019-03-24T15:55:07.310Z,9.63
2019-03-24T15:57:36.415Z,9.60
2019-03-24T16:00:08.269Z,9.65
2019-03-24T16:02:37.366Z,9.80
2019-03-24T16:05:06.959Z,9.83
2019-03-24T16:07:36.008Z,9.58
2019-03-24T16:10:06.810Z,9.95
2019-03-24T16:12:36.180Z,8.83
2019-03-24T16:15:09.258Z,9.00
2019-03-24T16:17:38.328Z,9.08
2019-03-24T16:20:08.551Z,9.50
2019-03-24T16:22:37.586Z,9.58
2019-03-24T16:25:08.371Z,9.73
2019-03-24T16:27:37.480Z,9.05
2019-03-24T16:30:07.191Z,9.38
2019-03-24T16:32:36.235Z,10.43
2019-03-24T16:35:06.435Z,9.90
2019-03-24T16:37:35.501Z,10.25
2019-03-24T16:40:07.196Z,10.60
2019-03-24T16:42:36.267Z,10.68
2019-03-24T16:45:06.056Z,9.93
2019-03-24T16:47:35.115Z,10.30
2019-03-24T16:50:06.513Z,10.35
2019-03-24T16:52:35.571Z,10.72
2019-03-24T16:55:06.912Z,11.28
2019-03-24T16:57:36.034Z,10.10
2019-03-24T17:00:07.214Z,10.03
2019-03-24T17:02:36.261Z,10.65
2019-03-24T17:05:09.375Z,10.00
2019-03-24T17:07:38.609Z,10.93
2019-03-24T17:10:08.083Z,10.55
2019-03-24T17:12:37.206Z,9.73
2019-03-24T17:15:07.496Z,9.78
2019-03-24T17:17:36.560Z,10.13
2019-03-24T17:20:07.679Z,10.25
2019-03-24T17:22:36.899Z,10.15
2019-03-24T17:25:06.611Z,10.23
2019-03-24T17:27:35.833Z,11.68
2019-03-24T17:30:10.387Z,11.18
2019-03-24T17:32:39.519Z,10.85
2019-03-24T17:35:09.029Z,11.38
2019-03-24T17:37:38.138Z,12.20
2019-03-24T17:40:12.311Z,11.12
2019-03-24T17:42:40.747Z,12.03
2019-03-24T17:45:11.253Z,11.48
2019-03-24T17:47:40.306Z,15.18
2019-03-24T17:50:11.985Z,12.85
2019-03-24T17:52:40.903Z,13.35
2019-03-24T17:55:12.118Z,13.13
2019-03-24T17:57:42.967Z,12.15
2019-03-24T18:00:16.242Z,11.75
2019-03-24T18:02:45.308Z,11.35
2019-03-24T18:05:14.710Z,12.07
2019-03-24T18:07:43.818Z,12.88
2019-03-24T18:10:13.383Z,11.95
2019-03-24T18:12:42.480Z,12.50
2019-03-24T18:15:11.884Z,13.45
2019-03-24T18:17:40.932Z,13.08
2019-03-24T18:20:10.926Z,13.60
2019-03-24T18:22:39.990Z,13.60
2019-03-24T18:25:10.398Z,13.05
2019-03-24T18:27:39.456Z,14.85
2019-03-24T18:30:11.104Z,15.40
2019-03-24T18:32:40.161Z,16.35
2019-03-24T18:35:10.439Z,16.20
2019-03-24T18:37:39.609Z,17.45
2019-03-24T18:40:10.078Z,16.65
2019-03-24T18:42:39.145Z,16.52
2019-03-24T18:45:09.986Z,17.35
2019-03-24T18:47:39.481Z,18.40
2019-03-24T18:50:09.921Z,18.00
2019-03-24T18:52:39.035Z,18.50
2019-03-24T18:55:09.041Z,17.17
2019-03-24T18:57:38.085Z,18.42
2019-03-24T19:00:10.091Z,18.07
2019-03-24T19:02:39.285Z,17.92
2019-03-24T19:05:08.695Z,19.05
2019-03-24T19:07:37.874Z,18.80
2019-03-24T19:10:08.781Z,19.35
2019-03-24T19:12:38.134Z,20.37
2019-03-24T19:15:10.235Z,20.10
2019-03-24T19:17:39.283Z,20.05
2019-03-24T19:20:09.953Z,18.80
2019-03-24T19:22:39.003Z,20.70
2019-03-24T19:25:10.219Z,19.45
2019-03-24T19:27:39.340Z,18.98
2019-03-24T19:30:11.524Z,19.77
2019-03-24T19:32:40.580Z,19.87
2019-03-24T19:35:10.112Z,19.77
2019-03-24T19:37:40.323Z,19.70
2019-03-24T19:40:32.264Z,19.80
2019-03-24T19:43:01.380Z,19.60
2019-03-24T19:45:30.486Z,19.25
2019-03-24T19:47:59.543Z,19.57
2019-03-24T19:50:28.605Z,18.92
2019-03-24T19:52:57.735Z,18.35
2019-03-24T19:55:26.803Z,17.30
2019-03-24T19:57:56.385Z,16.73
2019-03-24T20:00:25.716Z,16.52
2019-03-24T20:02:54.836Z,16.07
2019-03-24T20:05:23.901Z,14.15
2019-03-24T20:07:52.971Z,15.43
2019-03-24T20:10:22.046Z,13.60
2019-03-24T20:12:51.098Z,13.83
2019-03-24T20:15:20.235Z,14.43
2019-03-24T20:17:49.316Z,13.65
2019-03-24T20:20:18.410Z,12.88
2019-03-24T20:22:55.899Z,14.07
2019-03-24T20:25:18.316Z,13.28
2019-03-24T20:27:47.445Z,11.50
2019-03-24T20:30:16.706Z,13.20
2019-03-24T20:32:45.864Z,13.85
2019-03-24T20:35:15.007Z,13.45
2019-03-24T20:37:44.056Z,13.05
2019-03-24T20:40:13.296Z,11.88
2019-03-24T20:42:42.412Z,11.57
2019-03-24T20:45:12.070Z,11.68
2019-03-24T20:47:41.121Z,10.93
2019-03-24T20:50:11.622Z,10.82
2019-03-24T20:52:40.661Z,11.50
2019-03-24T20:55:10.265Z,10.75
2019-03-24T20:57:39.331Z,12.05
2019-03-24T21:00:09.683Z,9.93
2019-03-24T21:02:39.183Z,10.50
2019-03-24T21:05:10.858Z,9.95
2019-03-24T21:07:39.015Z,10.30
2019-03-24T21:10:09.602Z,9.08
2019-03-24T21:12:38.676Z,8.85
2019-03-24T21:15:11.299Z,7.67
2019-03-24T21:17:39.554Z,6.95
2019-03-24T21:20:09.141Z,6.97
2019-03-24T21:22:38.422Z,7.25
2019-03-24T21:25:08.403Z,6.22
2019-03-24T21:27:37.635Z,6.30
2019-03-24T21:30:08.622Z,6.42
2019-03-24T21:32:37.688Z,6.10
2019-03-24T21:35:07.474Z,5.92
2019-03-24T21:37:36.535Z,5.92
2019-03-24T21:40:06.673Z,6.20
2019-03-24T21:42:35.802Z,6.15
2019-03-24T21:45:07.173Z,6.50
2019-03-24T21:47:36.216Z,6.60
2019-03-24T21:50:08.089Z,6.53
2019-03-24T21:52:37.141Z,6.28
2019-03-24T21:55:07.351Z,5.90
2019-03-24T21:57:36.394Z,5.95
2019-03-24T22:00:07.500Z,6.50
2019-03-24T22:02:36.552Z,6.58
2019-03-24T22:05:05.940Z,6.03
2019-03-24T22:07:34.993Z,6.30
2019-03-24T22:10:06.180Z,6.67
2019-03-24T22:12:35.254Z,6.45
2019-03-24T22:15:07.010Z,6.53
2019-03-24T22:17:36.062Z,6.55
2019-03-24T22:20:06.926Z,6.25
2019-03-24T22:22:35.396Z,6.20
2019-03-24T22:25:05.586Z,7.00
2019-03-24T22:27:34.044Z,7.20
2019-03-24T22:30:02.600Z,6.80
2019-03-24T22:32:31.056Z,7.03
2019-03-24T22:35:00.151Z,7.10
2019-03-24T22:37:29.348Z,7.37
2019-03-24T22:39:57.836Z,7.12
2019-03-24T22:42:26.879Z,6.67
2019-03-24T22:44:55.352Z,7.10
2019-03-24T22:47:23.811Z,7.50
2019-03-24T22:49:52.279Z,7.37
2019-03-24T22:52:20.762Z,6.90
2019-03-24T22:54:49.236Z,7.03
2019-03-24T22:57:17.717Z,6.67
2019-03-24T22:59:46.190Z,7.07
2019-03-24T23:02:14.724Z,6.80
2019-03-24T23:04:43.805Z,7.28
2019-03-24T23:07:12.283Z,6.30
2019-03-24T23:09:40.761Z,7.00
2019-03-24T23:12:09.222Z,6.50
2019-03-24T23:14:37.707Z,5.83
2019-03-24T23:17:06.174Z,7.13
2019-03-24T23:19:34.659Z,6.83
2019-03-24T23:22:03.129Z,6.20
2019-03-24T23:24:31.597Z,6.47
2019-03-24T23:27:00.127Z,6.30
2019-03-24T23:29:28.617Z,6.50
2019-03-24T23:31:57.073Z,6.37
2019-03-24T23:34:25.535Z,7.03
2019-03-24T23:36:54.018Z,6.70
2019-03-24T23:39:22.481Z,6.70
2019-03-24T23:41:50.960Z,5.93
2019-03-24T23:44:19.421Z,6.80
2019-03-24T23:46:47.905Z,6.60
2019-03-24T23:49:16.450Z,5.63
2019-03-24T23:51:44.919Z,6.30
2019-03-24T23:54:13.382Z,6.17
2019-03-24T23:56:41.867Z,5.93
2019-03-24T23:59:10.380Z,6.53
